LPE2198 SEGU-SEQM
Flight info
| Callsign | LPE2198 |
|---|---|
| Flight time | 0h 29m |
| Altitude | 24000 |
| Route | USOGI1 PAMIS G675 QIT |
| Aircraft | A320/M-SDE3FGHIRWY/LB1 |
Departure
| Time | 2026-04-25 04:56 |
|---|---|
| Airport | José Joaquín de Olmedo International Airport (SEGU) |
Arrival
| Time | 2026-04-25 05:25 |
|---|---|
| Airport | Mariscal Sucre International Airport (SEQM) |
| Time | Latitude | Longitude | Altitude | Speed | Heading |
|---|---|---|---|---|---|
| 2026-04-25 04:17 | -2.15017 | -79.88422 | 29 ft | 0 kts | 300° |
| 2026-04-25 04:18 | -2.15017 | -79.88421 | 29 ft | 0 kts | 300° |
| 2026-04-25 04:42 | -2.15017 | -79.88420 | 29 ft | 0 kts | 300° |
| 2026-04-25 04:44 | -2.15024 | -79.88410 | 29 ft | 3 kts | 302° |
| 2026-04-25 04:44 | -2.15035 | -79.88393 | 29 ft | 3 kts | 308° |
| 2026-04-25 04:45 | -2.15048 | -79.88377 | 29 ft | 3 kts | 319° |
| 2026-04-25 04:45 | -2.15064 | -79.88366 | 29 ft | 3 kts | 347° |
| 2026-04-25 04:45 | -2.15079 | -79.88366 | 29 ft | 1 kts | 30° |
| 2026-04-25 04:45 | -2.15083 | -79.88368 | 29 ft | 0 kts | 30° |
| 2026-04-25 04:49 | -2.15069 | -79.88360 | 29 ft | 3 kts | 30° |
| 2026-04-25 04:49 | -2.15050 | -79.88349 | 29 ft | 5 kts | 30° |
| 2026-04-25 04:50 | -2.15013 | -79.88327 | 29 ft | 6 kts | 30° |
| 2026-04-25 04:50 | -2.14979 | -79.88308 | 29 ft | 5 kts | 30° |
| 2026-04-25 04:50 | -2.14950 | -79.88291 | 29 ft | 4 kts | 29° |
| 2026-04-25 04:50 | -2.14925 | -79.88278 | 29 ft | 4 kts | 29° |
| 2026-04-25 04:51 | -2.14866 | -79.88245 | 29 ft | 11 kts | 29° |
| 2026-04-25 04:51 | -2.14805 | -79.88210 | 29 ft | 9 kts | 31° |
| 2026-04-25 04:51 | -2.14785 | -79.88158 | 29 ft | 8 kts | 110° |
| 2026-04-25 04:51 | -2.14812 | -79.88112 | 29 ft | 10 kts | 120° |
| 2026-04-25 04:52 | -2.14829 | -79.88040 | 29 ft | 9 kts | 59° |
| 2026-04-25 04:52 | -2.14783 | -79.88003 | 29 ft | 8 kts | 28° |
| 2026-04-25 04:52 | -2.14735 | -79.87977 | 29 ft | 8 kts | 30° |
| 2026-04-25 04:52 | -2.14691 | -79.87951 | 29 ft | 7 kts | 33° |
| 2026-04-25 04:53 | -2.14662 | -79.87917 | 29 ft | 6 kts | 68° |
| 2026-04-25 04:53 | -2.14649 | -79.87880 | 28 ft | 5 kts | 72° |
| 2026-04-25 04:53 | -2.14641 | -79.87855 | 28 ft | 3 kts | 72° |
| 2026-04-25 04:53 | -2.14636 | -79.87836 | 28 ft | 3 kts | 76° |
| 2026-04-25 04:54 | -2.14632 | -79.87804 | 28 ft | 5 kts | 88° |
| 2026-04-25 04:54 | -2.14642 | -79.87773 | 28 ft | 5 kts | 121° |
| 2026-04-25 04:54 | -2.14670 | -79.87754 | 28 ft | 5 kts | 168° |
| 2026-04-25 04:54 | -2.14705 | -79.87767 | 27 ft | 6 kts | 208° |
| 2026-04-25 04:55 | -2.14749 | -79.87793 | 27 ft | 9 kts | 210° |
| 2026-04-25 04:55 | -2.14823 | -79.87835 | 28 ft | 38 kts | 210° |
| 2026-04-25 04:55 | -2.15278 | -79.88098 | 28 ft | 109 kts | 210° |
| 2026-04-25 04:55 | -2.16100 | -79.88575 | 86 ft | 157 kts | 210° |
| 2026-04-25 04:56 | -2.17045 | -79.89109 | 735 ft | 156 kts | 211° |
| 2026-04-25 04:56 | -2.17993 | -79.89643 | 1417 ft | 159 kts | 212° |
| 2026-04-25 04:56 | -2.19018 | -79.90219 | 1836 ft | 180 kts | 210° |
| 2026-04-25 04:56 | -2.20161 | -79.90914 | 2183 ft | 205 kts | 221° |
| 2026-04-25 04:57 | -2.20865 | -79.92211 | 2612 ft | 231 kts | 262° |
| 2026-04-25 04:57 | -2.20526 | -79.93856 | 3077 ft | 259 kts | 301° |
| 2026-04-25 04:57 | -2.19173 | -79.95050 | 3781 ft | 272 kts | 338° |
| 2026-04-25 04:57 | -2.17316 | -79.95268 | 4713 ft | 273 kts | 11° |
| 2026-04-25 04:58 | -2.15508 | -79.94703 | 5703 ft | 273 kts | 24° |
| 2026-04-25 04:58 | -2.13773 | -79.93915 | 6624 ft | 276 kts | 26° |
| 2026-04-25 04:58 | -2.12020 | -79.93092 | 7476 ft | 280 kts | 26° |
| 2026-04-25 04:58 | -2.10244 | -79.92256 | 8320 ft | 284 kts | 25° |
| 2026-04-25 04:59 | -2.08391 | -79.91525 | 9148 ft | 289 kts | 18° |
| 2026-04-25 04:59 | -2.06492 | -79.90820 | 9948 ft | 294 kts | 30° |
| 2026-04-25 04:59 | -2.04843 | -79.89526 | 10374 ft | 312 kts | 42° |
| 2026-04-25 04:59 | -2.03192 | -79.87989 | 10622 ft | 336 kts | 43° |
| 2026-04-25 05:00 | -2.01447 | -79.86319 | 10902 ft | 355 kts | 44° |
| 2026-04-25 05:00 | -1.99668 | -79.84608 | 11468 ft | 363 kts | 44° |
| 2026-04-25 05:00 | -1.97831 | -79.82850 | 12131 ft | 367 kts | 43° |
| 2026-04-25 05:00 | -1.95965 | -79.81078 | 12802 ft | 372 kts | 43° |
| 2026-04-25 05:01 | -1.94075 | -79.79295 | 13460 ft | 376 kts | 43° |
| 2026-04-25 05:01 | -1.92158 | -79.77489 | 14102 ft | 380 kts | 43° |
| 2026-04-25 05:01 | -1.90218 | -79.75663 | 14718 ft | 383 kts | 43° |
| 2026-04-25 05:01 | -1.88265 | -79.73830 | 15323 ft | 386 kts | 43° |
| 2026-04-25 05:02 | -1.86296 | -79.71985 | 15908 ft | 389 kts | 43° |
| 2026-04-25 05:02 | -1.84317 | -79.70129 | 16499 ft | 392 kts | 43° |
| 2026-04-25 05:02 | -1.82319 | -79.68253 | 17082 ft | 395 kts | 43° |
| 2026-04-25 05:02 | -1.80308 | -79.66363 | 17656 ft | 398 kts | 43° |
| 2026-04-25 05:03 | -1.78287 | -79.64462 | 18216 ft | 401 kts | 43° |
| 2026-04-25 05:03 | -1.76249 | -79.62545 | 18686 ft | 404 kts | 43° |
| 2026-04-25 05:03 | -1.74198 | -79.60615 | 19171 ft | 406 kts | 43° |
| 2026-04-25 05:03 | -1.72131 | -79.58669 | 19657 ft | 408 kts | 43° |
| 2026-04-25 05:04 | -1.70057 | -79.56719 | 20154 ft | 410 kts | 43° |
| 2026-04-25 05:04 | -1.67970 | -79.54756 | 20642 ft | 412 kts | 43° |
| 2026-04-25 05:04 | -1.65904 | -79.52814 | 21119 ft | 414 kts | 43° |
| 2026-04-25 05:04 | -1.63796 | -79.50834 | 21581 ft | 417 kts | 43° |
| 2026-04-25 05:05 | -1.61676 | -79.48843 | 22051 ft | 419 kts | 43° |
| 2026-04-25 05:05 | -1.59493 | -79.46899 | 22520 ft | 421 kts | 37° |
| 2026-04-25 05:05 | -1.57039 | -79.45286 | 22973 ft | 423 kts | 30° |
| 2026-04-25 05:05 | -1.54482 | -79.43802 | 23420 ft | 425 kts | 30° |
| 2026-04-25 05:06 | -1.51917 | -79.42320 | 23828 ft | 427 kts | 30° |
| 2026-04-25 05:06 | -1.49340 | -79.40833 | 24006 ft | 428 kts | 30° |
| 2026-04-25 05:06 | -1.46738 | -79.39330 | 24062 ft | 437 kts | 30° |
| 2026-04-25 05:06 | -1.44089 | -79.37792 | 24072 ft | 442 kts | 30° |
| 2026-04-25 05:07 | -1.41424 | -79.36241 | 24079 ft | 443 kts | 30° |
| 2026-04-25 05:07 | -1.38763 | -79.34692 | 24083 ft | 443 kts | 30° |
| 2026-04-25 05:07 | -1.36124 | -79.33159 | 24090 ft | 443 kts | 30° |
| 2026-04-25 05:07 | -1.33456 | -79.31613 | 24092 ft | 443 kts | 30° |
| 2026-04-25 05:08 | -1.30787 | -79.30063 | 24103 ft | 443 kts | 30° |
| 2026-04-25 05:08 | -1.28115 | -79.28509 | 24110 ft | 443 kts | 30° |
| 2026-04-25 05:08 | -1.25454 | -79.26961 | 24119 ft | 443 kts | 30° |
| 2026-04-25 05:08 | -1.23684 | -79.25931 | 24121 ft | 443 kts | 30° |
| 2026-04-25 05:09 | -1.20123 | -79.23864 | 24130 ft | 442 kts | 30° |
| 2026-04-25 05:09 | -1.17454 | -79.22318 | 24133 ft | 442 kts | 30° |
| 2026-04-25 05:09 | -1.15692 | -79.21296 | 24142 ft | 442 kts | 30° |
| 2026-04-25 05:09 | -1.12134 | -79.19231 | 24146 ft | 442 kts | 30° |
| 2026-04-25 05:10 | -1.09465 | -79.17680 | 24152 ft | 442 kts | 30° |
| 2026-04-25 05:10 | -1.06838 | -79.16152 | 24162 ft | 443 kts | 30° |
| 2026-04-25 05:10 | -1.04143 | -79.14584 | 24169 ft | 443 kts | 30° |
| 2026-04-25 05:10 | -1.01512 | -79.13056 | 24175 ft | 442 kts | 30° |
| 2026-04-25 05:11 | -0.98849 | -79.11512 | 24183 ft | 442 kts | 30° |
| 2026-04-25 05:11 | -0.96193 | -79.09974 | 24188 ft | 442 kts | 30° |
| 2026-04-25 05:11 | -0.93529 | -79.08434 | 24193 ft | 442 kts | 30° |
| 2026-04-25 05:12 | -0.88210 | -79.05347 | 24206 ft | 442 kts | 30° |
| 2026-04-25 05:12 | -0.85551 | -79.03803 | 24211 ft | 442 kts | 30° |
| 2026-04-25 05:12 | -0.82891 | -79.02259 | 24213 ft | 441 kts | 30° |
| 2026-04-25 05:12 | -0.80253 | -79.00684 | 24221 ft | 442 kts | 34° |
| 2026-04-25 05:13 | -0.77760 | -78.98890 | 24201 ft | 442 kts | 36° |
| 2026-04-25 05:13 | -0.75276 | -78.97080 | 23975 ft | 440 kts | 36° |
| 2026-04-25 05:13 | -0.72812 | -78.95285 | 23255 ft | 437 kts | 36° |
| 2026-04-25 05:13 | -0.70362 | -78.93502 | 22557 ft | 433 kts | 36° |
| 2026-04-25 05:14 | -0.67936 | -78.91738 | 21889 ft | 429 kts | 36° |
| 2026-04-25 05:14 | -0.65524 | -78.89988 | 21242 ft | 426 kts | 35° |
| 2026-04-25 05:14 | -0.63162 | -78.88277 | 20627 ft | 423 kts | 35° |
| 2026-04-25 05:15 | -0.58431 | -78.84838 | 19438 ft | 415 kts | 36° |
| 2026-04-25 05:15 | -0.56096 | -78.83143 | 18881 ft | 413 kts | 35° |
| 2026-04-25 05:15 | -0.53874 | -78.81433 | 18699 ft | 392 kts | 40° |
| 2026-04-25 05:15 | -0.51955 | -78.79597 | 18596 ft | 371 kts | 47° |
| 2026-04-25 05:16 | -0.50374 | -78.77676 | 18461 ft | 351 kts | 53° |
| 2026-04-25 05:16 | -0.49041 | -78.75630 | 17910 ft | 343 kts | 60° |
| 2026-04-25 05:16 | -0.48002 | -78.73566 | 17746 ft | 333 kts | 66° |
| 2026-04-25 05:16 | -0.47173 | -78.71448 | 17613 ft | 321 kts | 71° |
| 2026-04-25 05:17 | -0.46521 | -78.69341 | 17480 ft | 313 kts | 72° |
| 2026-04-25 05:17 | -0.45884 | -78.67271 | 17339 ft | 310 kts | 72° |
| 2026-04-25 05:17 | -0.45245 | -78.65219 | 17217 ft | 308 kts | 72° |
| 2026-04-25 05:17 | -0.44565 | -78.63182 | 16768 ft | 310 kts | 69° |
| 2026-04-25 05:18 | -0.43772 | -78.61161 | 16197 ft | 313 kts | 67° |
| 2026-04-25 05:18 | -0.42906 | -78.59187 | 15672 ft | 315 kts | 65° |
| 2026-04-25 05:18 | -0.41947 | -78.57218 | 15143 ft | 315 kts | 62° |
| 2026-04-25 05:18 | -0.40899 | -78.55310 | 14610 ft | 311 kts | 58° |
| 2026-04-25 05:19 | -0.39657 | -78.53549 | 14074 ft | 309 kts | 51° |
| 2026-04-25 05:19 | -0.38226 | -78.51961 | 13519 ft | 305 kts | 44° |
| 2026-04-25 05:19 | -0.36658 | -78.50555 | 12998 ft | 300 kts | 38° |
| 2026-04-25 05:19 | -0.34980 | -78.49346 | 12502 ft | 295 kts | 32° |
| 2026-04-25 05:20 | -0.33207 | -78.48352 | 12054 ft | 288 kts | 25° |
| 2026-04-25 05:20 | -0.31414 | -78.47603 | 11982 ft | 270 kts | 19° |
| 2026-04-25 05:20 | -0.29701 | -78.47077 | 11915 ft | 252 kts | 14° |
| 2026-04-25 05:20 | -0.28034 | -78.46718 | 11817 ft | 238 kts | 11° |
| 2026-04-25 05:21 | -0.26460 | -78.46404 | 11738 ft | 222 kts | 13° |
| 2026-04-25 05:21 | -0.25054 | -78.45846 | 11426 ft | 216 kts | 31° |
| 2026-04-25 05:21 | -0.23906 | -78.44905 | 11121 ft | 212 kts | 49° |
| 2026-04-25 05:21 | -0.23101 | -78.43699 | 10825 ft | 207 kts | 65° |
| 2026-04-25 05:22 | -0.22607 | -78.42367 | 10524 ft | 203 kts | 71° |
| 2026-04-25 05:22 | -0.22135 | -78.41045 | 10219 ft | 200 kts | 71° |
| 2026-04-25 05:22 | -0.21668 | -78.39753 | 9943 ft | 194 kts | 70° |
| 2026-04-25 05:22 | -0.21220 | -78.38516 | 9725 ft | 183 kts | 70° |
| 2026-04-25 05:23 | -0.20827 | -78.37429 | 9526 ft | 169 kts | 71° |
| 2026-04-25 05:23 | -0.20305 | -78.36419 | 9303 ft | 162 kts | 52° |
| 2026-04-25 05:23 | -0.19481 | -78.35675 | 9059 ft | 159 kts | 31° |
| 2026-04-25 05:23 | -0.18477 | -78.35273 | 8794 ft | 157 kts | 11° |
| 2026-04-25 05:24 | -0.18066 | -78.35216 | 8697 ft | 157 kts | 4° |
| 2026-04-25 05:24 | -0.16975 | -78.35257 | 8484 ft | 156 kts | 356° |
| 2026-04-25 05:24 | -0.15889 | -78.35297 | 8277 ft | 156 kts | 0° |
| 2026-04-25 05:24 | -0.14799 | -78.35345 | 8073 ft | 157 kts | 359° |
| 2026-04-25 05:25 | -0.13719 | -78.35390 | 7898 ft | 148 kts | 358° |
| 2026-04-25 05:25 | -0.12828 | -78.35427 | 7863 ft | 104 kts | 357° |
| 2026-04-25 05:25 | -0.12275 | -78.35450 | 7834 ft | 55 kts | 357° |
| 2026-04-25 05:25 | -0.11972 | -78.35461 | 7820 ft | 43 kts | 358° |
| 2026-04-25 05:26 | -0.11750 | -78.35505 | 7820 ft | 27 kts | 337° |
| 2026-04-25 05:26 | -0.11631 | -78.35575 | 7816 ft | 14 kts | 321° |
| 2026-04-25 05:26 | -0.11614 | -78.35615 | 7815 ft | 0 kts | 269° |